Time;durP1;ratioP1;P1;durP2;ratioP2;P2;SDS_P1;SDS_P2;PMS_P1;PMS_P2;Temp;Humidity;BMP_temperature;BMP_pressure;BME280_temperature;BME280_humidity;BME280_pressure;Samples;Min_cycle;Max_cycle;Signal;HPM_P1;HPM_P2
2021/05/20 00:01:41;;;;;;;2.92;1.05;;;;;;;18.82;50.54;97848.06;5090719;28;20032;-83
2021/05/20 00:04:07;;;;;;;2.28;1.90;;;;;;;18.79;50.55;97848.81;5108972;28;20019;-87
2021/05/20 00:06:32;;;;;;;1.50;1.08;;;;;;;18.76;50.64;97836.75;5108481;28;20042;-85
2021/05/20 00:08:58;;;;;;;4.00;1.75;;;;;;;18.74;50.78;97822.78;5109695;28;20420;-86
2021/05/20 00:11:23;;;;;;;2.45;0.80;;;;;;;18.71;51.08;97818.88;5109863;28;20019;-84
2021/05/20 00:13:49;;;;;;;3.88;1.00;;;;;;;18.67;50.99;97809.13;5104855;28;20153;-84
2021/05/20 00:16:14;;;;;;;4.65;1.48;;;;;;;18.67;51.08;97814.53;5109899;28;20466;-84
2021/05/20 00:18:40;;;;;;;3.53;1.52;;;;;;;18.66;51.25;97815.69;5106006;28;20471;-84
2021/05/20 00:21:05;;;;;;;3.13;1.10;;;;;;;18.64;51.29;97820.66;5106478;28;20474;-85
2021/05/20 00:23:31;;;;;;;3.40;1.25;;;;;;;18.65;51.27;97816.81;5109453;28;20024;-84
2021/05/20 00:25:56;;;;;;;2.72;1.20;;;;;;;18.67;51.39;97819.94;5110920;28;20045;-82
2021/05/20 00:28:21;;;;;;;3.53;1.50;;;;;;;18.66;51.37;97818.38;5110748;28;20039;-84
2021/05/20 00:30:48;;;;;;;2.22;1.42;;;;;;;18.67;51.03;97820.72;5105741;28;20097;-93
2021/05/20 00:33:14;;;;;;;2.22;1.23;;;;;;;18.70;50.98;97813.81;5096851;28;20023;-87
2021/05/20 00:35:39;;;;;;;4.18;1.38;;;;;;;18.76;51.12;97822.41;5101332;28;20038;-89
2021/05/20 00:38:10;;;;;;;3.85;1.73;;;;;;;18.76;51.14;97815.09;5095046;28;20023;-91
2021/05/20 00:40:36;;;;;;;3.75;1.50;;;;;;;18.78;51.19;97809.31;5112853;28;20470;-89
2021/05/20 00:43:01;;;;;;;1.20;1.10;;;;;;;18.79;51.06;97819.00;5112916;28;20027;-88
2021/05/20 00:45:27;;;;;;;4.25;1.58;;;;;;;18.79;51.10;97822.50;5106554;28;20074;-88
2021/05/20 00:47:52;;;;;;;2.58;1.38;;;;;;;18.80;51.15;97821.34;5093643;28;20546;-81
2021/05/20 00:50:18;;;;;;;2.17;1.25;;;;;;;18.81;51.24;97809.38;5100387;28;20020;-88
2021/05/20 00:52:43;;;;;;;2.22;1.38;;;;;;;18.84;51.15;97808.63;5109571;28;20118;-86
2021/05/20 00:55:09;;;;;;;4.93;1.55;;;;;;;18.85;51.16;97804.78;5113085;28;20107;-84
2021/05/20 00:57:47;;;;;;;3.60;1.42;;;;;;;18.89;51.27;97810.25;5112759;28;20106;-91
2021/05/20 01:00:13;;;;;;;;;;;;;;;18.88;51.43;97819.53;5088154;28;20028;-88
2021/05/20 01:02:40;;;;;;;1.58;1.20;;;;;;;18.87;51.61;97821.47;5096202;28;19911;-84
2021/05/20 01:05:11;;;;;;;3.67;1.15;;;;;;;18.88;51.60;97833.88;5097529;28;20026;-85
2021/05/20 01:07:37;;;;;;;4.72;1.63;;;;;;;18.87;51.88;97836.91;5097144;28;20110;-86
2021/05/20 01:10:05;;;;;;;3.50;1.50;;;;;;;18.85;52.27;97833.81;5103501;28;20692;-85
2021/05/20 01:12:31;;;;;;;3.65;1.48;;;;;;;18.82;52.33;97832.63;5106042;28;20019;-84
2021/05/20 01:14:57;;;;;;;5.07;1.20;;;;;;;18.83;52.38;97838.81;5095436;28;20760;-82
2021/05/20 01:17:24;;;;;;;1.27;1.08;;;;;;;18.78;52.24;97833.69;5092759;28;20036;-80
2021/05/20 01:19:50;;;;;;;4.75;1.50;;;;;;;18.76;51.63;97834.06;5109711;28;20058;-79
2021/05/20 01:22:15;;;;;;;1.23;1.13;;;;;;;18.73;51.85;97843.66;5094987;28;20108;-79
2021/05/20 01:24:41;;;;;;;5.65;1.30;;;;;;;18.70;51.68;97844.38;5111179;28;20019;-86
2021/05/20 01:27:09;;;;;;;5.35;1.15;;;;;;;18.67;51.78;97839.69;5096079;28;20596;-85
2021/05/20 01:29:35;;;;;;;3.00;1.23;;;;;;;18.61;51.83;97849.25;5110347;28;20114;-85
2021/05/20 01:32:03;;;;;;;2.50;1.42;;;;;;;18.51;51.90;97836.31;5091287;28;20036;-87
2021/05/20 01:34:32;;;;;;;3.25;1.90;;;;;;;18.43;52.02;97831.88;5108267;28;20024;-85
2021/05/20 01:36:58;;;;;;;3.55;1.08;;;;;;;18.32;51.99;97834.38;5108187;28;20035;-83
2021/05/20 01:39:25;;;;;;;2.95;1.45;;;;;;;18.23;52.56;97850.84;5107398;28;20031;-84
2021/05/20 01:41:50;;;;;;;1.67;1.20;;;;;;;18.15;52.92;97857.25;5109753;28;20019;-84
2021/05/20 01:44:16;;;;;;;1.85;1.30;;;;;;;18.06;53.30;97868.28;5111876;28;20053;-84
2021/05/20 01:46:41;;;;;;;4.40;1.33;;;;;;;17.95;53.81;97856.47;5093675;28;20111;-86
2021/05/20 01:49:10;;;;;;;5.93;1.70;;;;;;;17.84;53.99;97856.97;5091554;28;20019;-85
2021/05/20 01:51:35;;;;;;;;;;;;;;;17.80;54.25;97856.13;5092280;28;20060;-84
2021/05/20 01:54:01;;;;;;;3.67;1.67;;;;;;;17.62;54.50;97861.13;5091505;28;20363;-88
2021/05/20 01:56:28;;;;;;;4.30;1.77;;;;;;;17.56;55.11;97871.41;5109767;28;20106;-88
2021/05/20 01:58:54;;;;;;;1.58;1.40;;;;;;;17.43;55.77;97870.75;5106136;28;20498;-85
2021/05/20 02:01:19;;;;;;;6.32;2.03;;;;;;;17.30;56.05;97871.97;5099985;28;20028;-85
2021/05/20 02:03:45;;;;;;;5.07;2.22;;;;;;;17.23;56.08;97861.00;5100779;28;20027;-82
2021/05/20 02:06:11;;;;;;;3.38;1.90;;;;;;;17.20;56.42;97861.69;5109774;28;20088;-82
2021/05/20 02:08:38;;;;;;;7.00;1.80;;;;;;;17.18;56.42;97863.97;5111326;28;20070;-81
2021/05/20 02:11:05;;;;;;;2.92;1.70;;;;;;;17.16;56.60;97866.22;5094496;28;20053;-86
2021/05/20 02:13:31;;;;;;;4.22;2.17;;;;;;;17.17;56.86;97862.38;5097133;28;20091;-86
2021/05/20 02:15:56;;;;;;;1.90;1.63;;;;;;;17.17;56.80;97849.66;5090732;28;20471;-86
2021/05/20 02:18:23;;;;;;;2.50;1.80;;;;;;;17.12;56.78;97844.53;5100333;28;20038;-85
2021/05/20 02:20:49;;;;;;;4.47;1.70;;;;;;;17.00;57.07;97839.22;5110181;28;20035;-85
2021/05/20 02:23:15;;;;;;;4.30;1.92;;;;;;;16.95;57.29;97842.94;5110381;28;20028;-86
2021/05/20 02:25:41;;;;;;;1.45;1.35;;;;;;;16.92;57.41;97840.97;5110390;28;20047;-84
2021/05/20 02:28:07;;;;;;;4.82;1.88;;;;;;;16.83;57.05;97843.78;5102798;28;20045;-79
2021/05/20 02:30:33;;;;;;;1.80;1.70;;;;;;;16.83;57.13;97849.16;5106141;28;20024;-78
2021/05/20 02:32:59;;;;;;;3.22;1.70;;;;;;;16.85;56.79;97848.84;5092059;28;20024;-82
2021/05/20 02:35:25;;;;;;;5.50;1.67;;;;;;;16.84;57.02;97855.38;5109787;28;20120;-82
2021/05/20 02:37:51;;;;;;;2.35;1.50;;;;;;;16.84;57.01;97855.38;5110270;28;20498;-82
2021/05/20 02:40:17;;;;;;;5.53;1.92;;;;;;;16.80;57.14;97861.44;5107549;28;20113;-80
2021/05/20 02:42:43;;;;;;;4.78;2.35;;;;;;;16.76;57.34;97865.19;5094808;28;20032;-78
2021/05/20 02:45:12;;;;;;;3.53;1.90;;;;;;;16.73;57.04;97852.38;5109974;28;20024;-78
2021/05/20 02:47:37;;;;;;;3.65;1.73;;;;;;;16.69;56.88;97851.53;5090663;28;20488;-83
2021/05/20 02:50:04;;;;;;;3.45;1.52;;;;;;;16.64;57.25;97849.84;5100790;28;20020;-78
2021/05/20 02:52:29;;;;;;;2.88;2.00;;;;;;;16.63;56.80;97856.38;5110397;28;20118;-77
2021/05/20 02:54:55;;;;;;;1.80;1.70;;;;;;;16.59;57.06;97860.91;5103828;28;20098;-79
2021/05/20 02:57:21;;;;;;;6.57;1.60;;;;;;;16.56;57.17;97858.88;5111413;28;20546;-81
2021/05/20 02:59:47;;;;;;;1.50;1.40;;;;;;;16.54;56.94;97859.22;5094272;28;20107;-85
2021/05/20 03:02:12;;;;;;;6.00;1.50;;;;;;;16.50;57.40;97861.03;5102960;28;20048;-84
2021/05/20 03:04:38;;;;;;;7.53;2.97;;;;;;;16.45;57.39;97869.38;5098140;28;20030;-86
2021/05/20 03:07:05;;;;;;;4.22;1.65;;;;;;;16.39;58.15;97868.84;5104966;28;20027;-87
2021/05/20 03:09:31;;;;;;;4.87;2.67;;;;;;;16.30;58.46;97871.69;5103813;28;20501;-84
2021/05/20 03:11:58;;;;;;;3.38;2.20;;;;;;;16.19;59.38;97888.72;5089878;28;20059;-85
2021/05/20 03:14:25;;;;;;;7.07;2.28;;;;;;;16.14;59.71;97893.19;5102200;28;20024;-88
2021/05/20 03:16:52;;;;;;;3.05;1.88;;;;;;;16.13;59.77;97897.03;5109723;28;20040;-81
2021/05/20 03:19:18;;;;;;;3.10;2.30;;;;;;;16.22;59.57;97902.31;5103644;28;20103;-84
2021/05/20 03:21:44;;;;;;;2.63;2.38;;;;;;;16.30;59.47;97912.16;5101821;28;20062;-83
2021/05/20 03:24:09;;;;;;;5.38;2.08;;;;;;;16.46;59.20;97920.31;5109125;28;20471;-83
2021/05/20 03:26:35;;;;;;;3.60;2.00;;;;;;;16.64;58.98;97920.81;5093025;28;20048;-83
2021/05/20 03:29:00;;;;;;;3.20;2.58;;;;;;;16.79;58.00;97911.19;5093135;28;20062;-80
2021/05/20 03:31:26;;;;;;;4.32;2.00;;;;;;;16.91;57.80;97907.63;5104845;28;20056;-81
2021/05/20 03:33:52;;;;;;;5.40;2.08;;;;;;;17.00;57.72;97909.44;5099045;28;20486;-80
2021/05/20 03:36:17;;;;;;;5.07;2.72;;;;;;;17.15;57.10;97911.38;5100187;28;20027;-82
2021/05/20 03:38:43;;;;;;;3.58;2.42;;;;;;;17.31;56.23;97918.69;5102501;28;20023;-82
2021/05/20 03:41:09;;;;;;;5.00;1.90;;;;;;;17.50;55.95;97913.34;5106729;28;20486;-83
2021/05/20 03:43:36;;;;;;;3.67;2.72;;;;;;;17.63;54.98;97902.47;5104766;28;20024;-83
2021/05/20 03:46:03;;;;;;;4.88;2.22;;;;;;;17.86;55.13;97911.50;5102772;28;20111;-83
2021/05/20 03:48:29;;;;;;;4.85;2.40;;;;;;;18.03;54.33;97910.34;5102784;28;20019;-87
2021/05/20 03:50:55;;;;;;;5.13;2.30;;;;;;;18.24;53.69;97904.59;5097716;28;20027;-86
2021/05/20 03:53:21;;;;;;;5.20;2.00;;;;;;;18.42;53.15;97890.66;5103044;28;20032;-84
2021/05/20 03:55:48;;;;;;;3.28;2.63;;;;;;;18.64;52.73;97893.78;5106716;28;20034;-85
2021/05/20 03:58:14;;;;;;;3.72;1.85;;;;;;;19.01;51.83;97883.25;5107238;28;20035;-86
2021/05/20 04:00:41;;;;;;;3.57;2.40;;;;;;;19.39;51.02;97886.22;5099978;28;20024;-89
2021/05/20 04:03:06;;;;;;;3.78;1.85;;;;;;;19.73;49.43;97880.91;5103959;28;20272;-86
2021/05/20 04:05:32;;;;;;;3.85;2.30;;;;;;;20.09;49.09;97889.59;5106145;28;20039;-86
2021/05/20 04:07:57;;;;;;;2.83;2.33;;;;;;;20.48;48.30;97889.28;5106707;28;20034;-84
2021/05/20 04:10:24;;;;;;;3.80;2.35;;;;;;;20.83;46.83;97903.66;5101527;28;20081;-85
2021/05/20 04:12:50;;;;;;;1.92;1.73;;;;;;;21.17;46.06;97903.59;5101369;28;20440;-85
2021/05/20 04:15:16;;;;;;;3.35;1.92;;;;;;;21.52;45.43;97909.69;5113638;28;20077;-86
2021/05/20 04:17:41;;;;;;;3.28;1.70;;;;;;;21.87;44.75;97902.97;5111708;28;20114;-87
2021/05/20 04:20:08;;;;;;;3.20;2.00;;;;;;;22.17;44.93;97915.59;5103668;28;20476;-83
2021/05/20 04:22:34;;;;;;;4.53;1.70;;;;;;;22.44;42.92;97907.19;5102817;28;20027;-83
2021/05/20 04:24:59;;;;;;;4.85;2.03;;;;;;;22.65;42.86;97914.63;5107450;28;20024;-80
2021/05/20 04:27:24;;;;;;;4.72;2.03;;;;;;;22.77;43.13;97919.72;5102556;28;20040;-81
2021/05/20 04:29:50;;;;;;;2.35;1.15;;;;;;;22.95;41.72;97918.97;5106000;28;20027;-81
2021/05/20 04:32:15;;;;;;;3.42;1.55;;;;;;;23.10;41.48;97925.25;5111260;28;20020;-83
2021/05/20 04:34:44;;;;;;;1.88;1.50;;;;;;;23.22;41.39;97932.31;5098568;28;20035;-82
2021/05/20 04:37:09;;;;;;;1.60;1.40;;;;;;;23.31;41.36;97916.34;5092316;28;20024;-83
2021/05/20 04:39:35;;;;;;;6.28;3.13;;;;;;;23.32;41.07;97915.94;5092456;28;20021;-83
2021/05/20 04:42:00;;;;;;;2.35;1.60;;;;;;;23.41;40.73;97912.84;5092085;28;20072;-82
2021/05/20 04:44:27;;;;;;;9.43;1.63;;;;;;;23.49;40.49;97924.53;5092372;28;20016;-83
2021/05/20 04:46:52;;;;;;;1.70;1.58;;;;;;;23.49;39.79;97935.44;5092163;28;20061;-83
2021/05/20 04:49:18;;;;;;;2.67;1.00;;;;;;;23.56;40.71;97942.84;5091829;28;20055;-84
2021/05/20 04:51:44;;;;;;;1.58;1.48;;;;;;;23.59;40.33;97937.38;5092240;28;20483;-84
2021/05/20 04:54:09;;;;;;;1.38;1.30;;;;;;;23.59;40.45;97945.56;5092354;28;20020;-82
2021/05/20 04:56:35;;;;;;;1.55;1.17;;;;;;;23.68;40.92;97934.28;5092526;28;20032;-84
2021/05/20 04:59:01;;;;;;;1.77;1.67;;;;;;;23.86;40.39;97938.94;5091962;28;20024;-83
2021/05/20 05:01:27;;;;;;;3.38;1.30;;;;;;;23.98;39.11;97944.00;5092195;28;20024;-83
2021/05/20 05:03:52;;;;;;;6.00;1.25;;;;;;;24.14;39.80;97936.19;5091933;28;20020;-83
2021/05/20 05:06:18;;;;;;;2.15;1.20;;;;;;;24.41;38.69;97934.91;5091425;28;20519;-83
2021/05/20 05:08:43;;;;;;;1.90;1.17;;;;;;;24.66;38.31;97940.31;5091911;28;20028;-83
2021/05/20 05:11:09;;;;;;;1.52;1.23;;;;;;;24.66;38.21;97937.59;5091742;28;20173;-83
2021/05/20 05:13:34;;;;;;;1.45;0.90;;;;;;;24.84;37.91;97937.50;5092880;28;20031;-83
2021/05/20 05:16:00;;;;;;;1.58;1.25;;;;;;;24.78;37.30;97939.09;5091699;28;20062;-83
2021/05/20 05:18:25;;;;;;;1.77;1.02;;;;;;;24.54;38.00;97930.56;5091824;28;20118;-83
2021/05/20 05:20:51;;;;;;;3.13;1.35;;;;;;;24.34;37.84;97924.81;5091654;28;20051;-83
2021/05/20 05:23:16;;;;;;;1.23;1.00;;;;;;;24.06;38.47;97933.84;5091794;28;20020;-82
2021/05/20 05:25:42;;;;;;;1.88;0.98;;;;;;;23.93;38.88;97937.00;5091471;28;20039;-82
2021/05/20 05:28:07;;;;;;;1.70;1.10;;;;;;;23.92;38.33;97940.09;5091210;28;20027;-82
2021/05/20 05:30:33;;;;;;;4.35;1.20;;;;;;;23.94;39.03;97944.00;5091267;28;20024;-83
2021/05/20 05:32:59;;;;;;;4.38;1.30;;;;;;;24.05;38.88;97948.69;5091420;28;20028;-83
2021/05/20 05:35:25;;;;;;;1.10;1.00;;;;;;;24.07;38.35;97952.59;5091541;28;20481;-82
2021/05/20 05:37:50;;;;;;;2.70;1.38;;;;;;;24.11;38.40;97956.06;5091183;28;20390;-83
2021/05/20 05:40:15;;;;;;;2.38;1.08;;;;;;;24.22;38.55;97956.06;5091275;28;20116;-82
2021/05/20 05:42:41;;;;;;;3.10;1.00;;;;;;;24.44;38.23;97954.03;5091390;28;20030;-83
2021/05/20 05:45:07;;;;;;;3.47;1.52;;;;;;;24.66;38.11;97953.97;5091038;28;20027;-83
2021/05/20 05:47:33;;;;;;;4.43;0.90;;;;;;;24.76;37.74;97952.38;5091280;28;20113;-83
2021/05/20 05:50:06;;;;;;;2.15;1.00;;;;;;;24.82;36.73;97948.03;5091991;28;20066;-83
2021/05/20 05:52:31;;;;;;;1.55;1.27;;;;;;;24.98;37.02;97958.50;5091209;28;20110;-82
2021/05/20 05:54:57;;;;;;;2.55;1.90;;;;;;;25.29;37.21;97961.44;5091094;28;20165;-83
2021/05/20 05:57:22;;;;;;;1.73;1.40;;;;;;;25.56;36.50;97967.13;5091559;28;20024;-83
2021/05/20 05:59:49;;;;;;;2.03;0.93;;;;;;;25.73;35.86;97953.69;5091081;28;20024;-82
2021/05/20 06:02:17;;;;;;;2.00;1.17;;;;;;;26.08;35.58;97957.31;5090939;28;20020;-83
2021/05/20 06:04:42;;;;;;;5.35;2.60;;;;;;;26.34;35.16;97955.88;5092533;28;20050;-83
2021/05/20 06:07:08;;;;;;;4.10;1.08;;;;;;;26.65;34.69;97955.13;5090818;28;20016;-83
2021/05/20 06:09:33;;;;;;;0.82;0.80;;;;;;;26.90;34.41;97951.28;5090966;28;20020;-83
2021/05/20 06:12:00;;;;;;;4.03;1.00;;;;;;;27.19;33.83;97957.16;5090491;28;20024;-83
2021/05/20 06:14:25;;;;;;;2.65;1.08;;;;;;;27.20;33.64;97955.97;5090817;28;20067;-82
2021/05/20 06:16:51;;;;;;;2.28;1.10;;;;;;;27.24;32.95;97955.91;5089936;28;20012;-82
2021/05/20 06:19:17;;;;;;;2.80;1.10;;;;;;;27.12;33.30;97951.75;5090620;28;20031;-83
2021/05/20 06:21:42;;;;;;;1.13;1.00;;;;;;;27.10;33.39;97949.44;5090806;28;20093;-83
2021/05/20 06:24:09;;;;;;;2.58;1.20;;;;;;;26.80;33.20;97944.75;5092063;28;20024;-83
2021/05/20 06:26:35;;;;;;;1.40;0.80;;;;;;;26.64;33.86;97957.06;5090419;28;20128;-83
2021/05/20 06:29:01;;;;;;;2.28;0.80;;;;;;;26.34;33.79;97942.16;5090239;28;20470;-83
2021/05/20 06:31:28;;;;;;;2.20;0.90;;;;;;;26.13;33.71;97934.94;5090510;28;20032;-83
2021/05/20 06:33:54;;;;;;;1.15;0.85;;;;;;;25.54;34.18;97927.66;5090174;28;20039;-82
2021/05/20 06:36:19;;;;;;;1.35;0.57;;;;;;;25.22;35.01;97940.38;5090483;28;20027;-83
2021/05/20 06:38:45;;;;;;;0.90;0.85;;;;;;;25.03;35.16;97941.66;5089966;28;20062;-82
2021/05/20 06:41:10;;;;;;;1.38;0.73;;;;;;;24.80;36.54;97946.88;5090214;28;20031;-83
2021/05/20 06:43:37;;;;;;;1.38;1.05;;;;;;;24.53;36.19;97941.91;5090346;28;20027;-82
2021/05/20 06:46:04;;;;;;;0.95;0.90;;;;;;;24.28;36.77;97945.50;5089853;28;20020;-81
2021/05/20 06:48:30;;;;;;;3.17;0.90;;;;;;;24.09;37.50;97952.19;5090046;28;20028;-82
2021/05/20 06:50:55;;;;;;;1.60;0.70;;;;;;;23.94;38.52;97944.00;5089747;28;20038;-82
2021/05/20 06:53:23;;;;;;;3.08;0.90;;;;;;;24.00;38.50;97949.88;5089546;28;20068;-81
2021/05/20 06:55:49;;;;;;;;;;;;;;;23.95;38.18;97959.22;5090145;28;20045;-80
2021/05/20 07:00:40;;;;;;;1.35;0.80;;;;;;;23.65;38.85;97954.94;5091416;28;20023;-83
2021/05/20 07:03:06;;;;;;;4.68;1.08;;;;;;;23.66;39.72;97944.81;5089572;28;20051;-83
2021/05/20 07:05:32;;;;;;;4.97;1.20;;;;;;;23.63;38.83;97961.94;5089839;28;20478;-83
2021/05/20 07:07:59;;;;;;;4.15;0.65;;;;;;;23.70;38.05;97953.75;5090669;28;20496;-82
2021/05/20 07:10:25;;;;;;;2.80;1.00;;;;;;;23.75;38.04;97953.34;5089859;28;20053;-83
2021/05/20 07:12:50;;;;;;;1.92;1.25;;;;;;;23.77;38.04;97956.47;5090031;28;20020;-83
2021/05/20 07:15:16;;;;;;;5.80;1.52;;;;;;;23.86;37.29;97949.84;5089775;28;20032;-84
2021/05/20 07:17:41;;;;;;;2.25;1.20;;;;;;;23.63;37.32;97954.56;5090061;28;20031;-82
2021/05/20 07:20:08;;;;;;;4.82;1.45;;;;;;;23.47;38.36;97960.41;5089748;28;20031;-83
2021/05/20 07:22:34;;;;;;;6.40;1.20;;;;;;;23.50;38.19;97965.06;5090099;28;20378;-82
2021/05/20 07:25:03;;;;;;;3.50;1.10;;;;;;;23.47;38.86;97954.16;5089633;28;20020;-80
2021/05/20 07:27:28;;;;;;;2.78;1.17;;;;;;;23.54;38.47;97959.59;5089762;28;20401;-82
2021/05/20 07:29:54;;;;;;;5.53;1.77;;;;;;;23.57;38.59;97960.78;5093046;28;20115;-81
2021/05/20 07:32:20;;;;;;;5.50;1.60;;;;;;;23.57;38.68;97969.75;5093543;28;20028;-81
2021/05/20 07:34:46;;;;;;;3.17;1.50;;;;;;;23.63;38.96;97967.41;5093867;28;20030;-82
2021/05/20 07:37:12;;;;;;;3.13;1.80;;;;;;;23.61;38.92;97964.31;5093574;28;20020;-83
2021/05/20 07:39:37;;;;;;;3.33;1.02;;;;;;;23.70;38.54;97974.81;5093800;28;20046;-83
2021/05/20 07:42:04;;;;;;;1.83;1.20;;;;;;;23.67;38.58;97974.44;5093461;28;20031;-82
2021/05/20 07:44:30;;;;;;;4.15;2.22;;;;;;;23.73;38.18;97974.81;5094975;28;20051;-83
2021/05/20 07:46:57;;;;;;;2.85;1.52;;;;;;;23.61;37.96;97967.81;5093732;28;20024;-82
2021/05/20 07:49:25;;;;;;;5.35;1.40;;;;;;;23.54;39.10;97986.13;5093457;28;20027;-82
2021/05/20 07:51:50;;;;;;;3.08;1.95;;;;;;;23.44;39.31;97979.50;5093606;28;20020;-81
2021/05/20 07:54:16;;;;;;;2.47;1.30;;;;;;;23.26;39.52;97987.66;5093267;28;20028;-81
2021/05/20 07:56:43;;;;;;;3.42;1.40;;;;;;;23.21;39.80;97977.91;5093506;28;20024;-81
2021/05/20 07:59:09;;;;;;;4.82;1.60;;;;;;;23.02;40.63;97982.50;5093174;28;20023;-82
2021/05/20 08:01:35;;;;;;;5.88;1.35;;;;;;;22.92;40.64;97985.97;5093362;28;20024;-81
2021/05/20 08:04:07;;;;;;;2.13;1.38;;;;;;;22.93;40.78;97981.31;5093162;28;20024;-81
2021/05/20 08:06:40;;;;;;;4.53;1.27;;;;;;;22.92;40.58;97985.97;5093152;28;20050;-81
2021/05/20 08:09:29;;;;;;;2.58;1.00;;;;;;;22.92;40.63;97983.25;5092918;28;20028;-82
2021/05/20 08:11:55;;;;;;;2.40;1.52;;;;;;;23.02;40.62;97989.88;5093199;28;20020;-81
2021/05/20 08:14:20;;;;;;;2.70;1.00;;;;;;;23.01;40.36;97980.94;5092956;28;20022;-82
2021/05/20 08:16:46;;;;;;;1.83;1.20;;;;;;;23.10;39.40;97969.66;5092788;28;20060;-81
2021/05/20 08:19:11;;;;;;;2.58;1.60;;;;;;;23.15;39.53;97973.97;5092724;28;20111;-82
2021/05/20 08:21:37;;;;;;;8.10;3.38;;;;;;;23.26;38.96;97976.75;5093164;28;20059;-82
2021/05/20 08:24:04;;;;;;;4.07;2.00;;;;;;;23.29;39.42;97959.59;5092492;28;20035;-82
2021/05/20 08:26:30;;;;;;;2.57;1.17;;;;;;;23.33;38.86;97965.84;5092353;28;20050;-81
2021/05/20 08:28:56;;;;;;;3.00;1.58;;;;;;;23.36;38.50;97958.81;5092679;28;20254;-81
2021/05/20 08:31:21;;;;;;;1.55;1.35;;;;;;;23.37;38.67;97960.38;5092542;28;20029;-82
2021/05/20 08:33:47;;;;;;;1.50;1.27;;;;;;;23.42;38.89;97968.19;5092692;28;20020;-81
2021/05/20 08:36:13;;;;;;;3.95;1.05;;;;;;;23.46;37.21;97977.94;5092644;28;20033;-82
2021/05/20 08:38:38;;;;;;;2.13;1.50;;;;;;;23.55;36.44;97979.50;5092663;28;20053;-82
2021/05/20 08:41:04;;;;;;;7.88;1.70;;;;;;;23.55;37.00;97984.97;5091981;28;20035;-81
2021/05/20 08:43:30;;;;;;;1.33;1.10;;;;;;;23.59;37.37;97977.56;5092644;28;20051;-82
2021/05/20 08:45:56;;;;;;;5.10;1.48;;;;;;;23.59;37.06;97983.00;5092614;28;20016;-81
2021/05/20 08:48:21;;;;;;;2.33;1.20;;;;;;;23.57;37.58;98005.22;5092139;28;20177;-81
2021/05/20 08:50:47;;;;;;;6.30;2.13;;;;;;;23.60;36.55;98003.69;5092617;28;20478;-81
2021/05/20 08:53:13;;;;;;;2.55;1.52;;;;;;;23.57;36.29;98005.22;5092040;28;20031;-81
2021/05/20 08:55:39;;;;;;;2.28;1.42;;;;;;;23.50;36.84;98002.50;5092119;28;20387;-81
2021/05/20 08:58:08;;;;;;;2.42;1.65;;;;;;;23.49;36.44;97993.50;5092249;28;20039;-81
2021/05/20 09:00:34;;;;;;;1.45;1.13;;;;;;;23.49;36.60;97990.03;5092289;28;20039;-81
2021/05/20 09:03:09;;;;;;;3.17;1.30;;;;;;;23.39;37.29;97991.56;5092147;28;20023;-81
2021/05/20 09:05:35;;;;;;;3.35;1.38;;;;;;;23.40;37.59;97998.59;5092028;28;20016;-81
2021/05/20 09:08:04;;;;;;;2.88;1.58;;;;;;;23.31;38.02;98000.91;5092171;28;20024;-81
2021/05/20 09:10:32;;;;;;;2.55;1.50;;;;;;;23.28;38.34;98002.47;5093036;28;20028;-81
2021/05/20 09:13:09;;;;;;;1.13;0.60;;;;;;;23.19;36.25;98012.94;5091983;28;20455;-81
2021/05/20 09:15:37;;;;;;;0.50;0.50;;;;;;;23.10;35.46;98010.56;5091571;28;20028;-81
2021/05/20 09:18:13;;;;;;;1.85;0.50;;;;;;;23.00;35.47;98024.97;5091762;28;20092;-81
2021/05/20 09:20:41;;;;;;;1.33;0.57;;;;;;;22.87;35.87;98021.78;5091843;28;20061;-82
2021/05/20 09:23:10;;;;;;;1.42;0.98;;;;;;;22.70;36.57;98040.41;5091747;28;20106;-82
2021/05/20 09:25:37;;;;;;;1.63;0.95;;;;;;;22.55;37.24;98046.94;5091461;28;20044;-82
2021/05/20 09:28:05;;;;;;;2.80;1.48;;;;;;;22.39;37.69;98058.91;5091623;28;20118;-82
2021/05/20 09:30:36;;;;;;;1.50;1.00;;;;;;;22.31;37.75;98061.94;5091826;28;20058;-82
2021/05/20 09:33:08;;;;;;;0.30;0.30;;;;;;;22.21;38.13;98064.19;5091794;28;20027;-81
2021/05/20 09:35:50;;;;;;;0.40;0.40;;;;;;;22.11;37.49;98059.47;5091682;28;20032;-82
2021/05/20 09:38:24;;;;;;;1.08;0.60;;;;;;;22.05;38.06;98060.97;5091164;28;20024;-82
2021/05/20 09:41:03;;;;;;;0.70;0.70;;;;;;;22.02;38.59;98048.09;5091330;28;20020;-82
2021/05/20 09:43:33;;;;;;;1.17;0.85;;;;;;;22.02;39.58;98062.50;5091598;28;20016;-83
2021/05/20 09:46:01;;;;;;;1.95;1.20;;;;;;;22.04;40.50;98059.41;5091382;28;20036;-82
2021/05/20 09:48:36;;;;;;;3.03;0.90;;;;;;;22.06;40.69;98046.97;5091301;28;20119;-82
2021/05/20 09:51:01;;;;;;;3.15;1.50;;;;;;;22.05;41.18;98053.56;5090774;28;20043;-82
2021/05/20 09:53:29;;;;;;;2.55;0.88;;;;;;;22.07;41.70;98051.25;5091834;28;20024;-83
2021/05/20 09:55:57;;;;;;;2.17;0.73;;;;;;;22.16;41.87;98047.44;5091475;28;20020;-82
2021/05/20 09:58:27;;;;;;;0.80;0.80;;;;;;;22.18;42.21;98042.38;5091071;28;20741;-82
2021/05/20 10:00:57;;;;;;;2.45;0.98;;;;;;;22.19;41.62;98052.13;5091160;28;20027;-82
2021/05/20 10:03:24;;;;;;;2.80;0.82;;;;;;;22.22;37.51;98057.59;5091069;28;20871;-83
2021/05/20 10:05:52;;;;;;;2.35;0.50;;;;;;;22.22;36.96;98057.59;5091119;28;20020;-83
2021/05/20 10:08:20;;;;;;;3.38;0.68;;;;;;;22.28;36.88;98057.25;5090961;28;20490;-81
2021/05/20 10:10:48;;;;;;;1.83;1.38;;;;;;;22.29;37.22;98053.34;5091307;28;20073;-82
2021/05/20 10:13:19;;;;;;;3.67;2.28;;;;;;;22.30;37.76;98058.44;5092102;28;20629;-81
2021/05/20 10:15:45;;;;;;;0.93;0.40;;;;;;;22.33;37.85;98074.00;5091165;28;20016;-81
2021/05/20 10:18:17;;;;;;;0.93;0.65;;;;;;;22.32;38.32;98083.34;5090809;28;20020;-81
2021/05/20 10:20:45;;;;;;;3.20;0.60;;;;;;;22.32;39.17;98079.84;5091010;28;20020;-82
2021/05/20 10:23:16;;;;;;;1.02;0.70;;;;;;;22.29;39.86;98081.38;5092500;28;20078;-81
2021/05/20 10:25:43;;;;;;;1.38;0.90;;;;;;;22.25;39.62;98099.63;5090513;28;20094;-81
2021/05/20 10:28:11;;;;;;;0.75;0.75;;;;;;;22.19;40.23;98093.75;5090735;28;20023;-81
2021/05/20 10:30:39;;;;;;;20.08;3.78;;;;;;;22.17;40.47;98096.06;5090709;28;20024;-81
2021/05/20 10:33:06;;;;;;;17.67;2.75;;;;;;;22.16;40.19;98099.19;5090585;28;20051;-81
2021/05/20 10:35:43;;;;;;;2.97;1.00;;;;;;;22.14;40.45;98090.59;5090489;28;20110;-81
2021/05/20 10:38:12;;;;;;;3.15;0.95;;;;;;;22.09;41.96;98082.78;5090292;28;20395;-81
2021/05/20 10:40:37;;;;;;;;;;;;;;;22.04;41.96;98087.41;5092568;28;20036;-81
2021/05/20 10:43:10;;;;;;;1.30;0.50;;;;;;;21.97;41.40;98090.09;5090515;28;19934;-82
2021/05/20 10:45:39;;;;;;;0.82;0.50;;;;;;;21.86;42.62;98081.81;5090403;28;20066;-82
2021/05/20 10:48:05;;;;;;;0.45;0.43;;;;;;;21.74;42.76;98080.16;5090427;28;20386;-81
2021/05/20 10:50:53;;;;;;;6.72;1.52;;;;;;;21.58;42.54;98072.22;5090031;28;20020;-85
2021/05/20 10:53:37;;;;;;;3.30;1.23;;;;;;;21.44;42.11;98072.81;5090104;28;20028;-82
2021/05/20 10:56:04;;;;;;;7.15;1.83;;;;;;;21.28;41.60;98058.66;5090313;28;20031;-82
2021/05/20 10:58:31;;;;;;;1.77;0.80;;;;;;;21.22;40.65;98066.38;5091047;28;20048;-82
2021/05/20 11:00:56;;;;;;;15.00;3.20;;;;;;;21.16;40.59;98080.66;5090251;28;20054;-82
2021/05/20 11:03:42;;;;;;;3.25;0.60;;;;;;;21.11;40.89;98079.06;5089809;28;20024;-82
2021/05/20 11:06:08;;;;;;;2.20;1.42;;;;;;;21.01;40.89;98080.50;5078732;28;20028;-81
2021/05/20 11:08:36;;;;;;;5.00;2.47;;;;;;;20.92;41.61;98083.50;5090059;28;20024;-82
2021/05/20 11:11:02;;;;;;;0.77;0.60;;;;;;;20.84;42.38;98076.41;5090140;28;20093;-82
2021/05/20 11:13:45;;;;;;;0.88;0.82;;;;;;;20.83;43.13;98074.06;5089775;28;20032;-82
2021/05/20 11:16:14;;;;;;;0.50;0.50;;;;;;;20.72;43.78;98079.34;5089793;28;20016;-82
2021/05/20 11:18:41;;;;;;;1.40;0.60;;;;;;;20.70;43.41;98084.31;5089945;28;20020;-81
2021/05/20 11:21:06;;;;;;;4.22;0.70;;;;;;;20.61;43.75;98079.94;5089733;28;20024;-82
2021/05/20 11:23:34;;;;;;;1.48;0.60;;;;;;;20.58;44.12;98072.53;5089660;28;20028;-81
2021/05/20 11:26:04;;;;;;;2.38;0.70;;;;;;;20.53;43.66;98064.72;5089747;28;20040;-81
2021/05/20 11:28:38;;;;;;;7.57;1.00;;;;;;;20.46;42.37;98062.66;5089884;28;20084;-81
2021/05/20 11:31:03;;;;;;;1.52;0.35;;;;;;;20.46;43.39;98078.94;5089910;28;20031;-82
2021/05/20 11:33:34;;;;;;;2.20;0.35;;;;;;;20.43;43.21;98068.03;5089778;28;20054;-82
2021/05/20 11:38:28;;;;;;;;;;;;;;;20.46;41.16;98076.25;5091205;28;20028;-82